Time;durP1;ratioP1;P1;durP2;ratioP2;P2;SDS_P1;SDS_P2;PMS_P1;PMS_P2;Temp;Humidity;BMP_temperature;BMP_pressure;BME280_temperature;BME280_humidity;BME280_pressure;Samples;Min_cycle;Max_cycle;Signal;HPM_P1;HPM_P2
2024/01/19 00:01:03;;;;;;;2.30;2.13;;;;;;;13.21;73.02;93544.50;5110520;28;20224;-68
2024/01/19 00:03:30;;;;;;;2.00;1.90;;;;;;;13.19;73.19;93533.63;5110198;28;20283;-70
2024/01/19 00:05:57;;;;;;;2.13;1.97;;;;;;;13.11;73.20;93544.78;5110763;28;20192;-70
2024/01/19 00:08:25;;;;;;;2.33;2.13;;;;;;;13.14;73.46;93521.34;5110044;28;20193;-69
2024/01/19 00:10:53;;;;;;;2.47;2.27;;;;;;;12.87;73.56;93507.44;5110417;28;20189;-64
2024/01/19 00:13:20;;;;;;;4.37;2.83;;;;;;;13.10;73.53;93555.25;5109701;28;20233;-64
2024/01/19 00:15:47;;;;;;;2.80;2.40;;;;;;;13.07;73.74;93551.25;5109987;28;20185;-65
2024/01/19 00:18:14;;;;;;;2.20;2.10;;;;;;;13.06;73.67;93559.94;5109543;28;20189;-66
2024/01/19 00:20:40;;;;;;;2.90;2.60;;;;;;;13.04;73.92;93559.34;5110122;28;20199;-66
2024/01/19 00:23:07;;;;;;;3.30;2.60;;;;;;;13.03;73.87;93561.09;5109915;28;20200;-63
2024/01/19 00:25:37;;;;;;;3.00;2.33;;;;;;;12.93;73.71;93547.75;5109588;28;20200;-69
2024/01/19 00:28:06;;;;;;;3.73;2.87;;;;;;;13.00;74.13;93556.34;5110940;28;20916;-64
2024/01/19 00:30:33;;;;;;;3.63;2.47;;;;;;;12.99;74.23;93567.53;5117190;28;20184;-70
2024/01/19 00:33:00;;;;;;;2.80;2.23;;;;;;;12.96;74.35;93549.97;5121572;28;20196;-71
2024/01/19 00:35:26;;;;;;;3.40;3.07;;;;;;;12.93;74.38;93573.41;5109901;28;20192;-71
2024/01/19 00:37:53;;;;;;;3.63;3.03;;;;;;;12.97;74.53;93566.94;5110460;28;20191;-68
2024/01/19 00:40:20;;;;;;;3.47;3.17;;;;;;;12.98;74.51;93555.69;5109766;28;20189;-68
2024/01/19 00:42:47;;;;;;;3.13;2.83;;;;;;;12.97;74.78;93559.25;5110100;28;20228;-66
2024/01/19 00:45:15;;;;;;;3.30;3.00;;;;;;;12.96;74.68;93572.28;5109976;28;20196;-65
2024/01/19 00:47:41;;;;;;;2.83;2.63;;;;;;;12.97;74.75;93568.72;5109452;28;20746;-68
2024/01/19 00:50:09;;;;;;;3.13;2.87;;;;;;;12.68;74.88;93516.47;5109527;28;20704;-66
2024/01/19 00:52:36;;;;;;;3.77;3.37;;;;;;;12.96;75.02;93582.53;5110265;28;20196;-66
2024/01/19 00:55:04;;;;;;;5.10;3.40;;;;;;;12.85;74.97;93563.25;5109954;28;20197;-69
2024/01/19 00:57:30;;;;;;;4.50;3.47;;;;;;;12.95;75.14;93550.13;5113413;28;20181;-72
2024/01/19 00:59:57;;;;;;;4.37;3.77;;;;;;;12.96;75.12;93562.00;5120587;28;20189;-66
2024/01/19 01:02:27;;;;;;;5.37;3.60;;;;;;;12.94;75.14;93582.69;5110428;28;20251;-68
2024/01/19 01:04:54;;;;;;;4.47;3.93;;;;;;;12.94;75.25;93566.50;5109789;28;20200;-69
2024/01/19 01:07:21;;;;;;;7.13;4.33;;;;;;;12.96;75.47;93572.28;5109556;28;20192;-66
2024/01/19 01:09:48;;;;;;;6.23;4.13;;;;;;;12.87;75.41;93569.00;5109729;28;20669;-65
2024/01/19 01:12:16;;;;;;;4.10;3.70;;;;;;;12.92;75.64;93569.25;5109169;28;20285;-64
2024/01/19 01:14:43;;;;;;;4.87;4.40;;;;;;;12.67;75.70;93542.31;5109591;28;20197;-68
2024/01/19 01:17:10;;;;;;;5.47;4.40;;;;;;;12.92;75.80;93576.16;5109010;28;20253;-66
2024/01/19 01:19:38;;;;;;;4.23;3.83;;;;;;;12.91;75.68;93564.28;5109314;28;20189;-64
2024/01/19 01:22:06;;;;;;;5.50;3.90;;;;;;;12.86;75.69;93558.91;5109511;28;20205;-66
2024/01/19 01:24:33;;;;;;;6.67;4.80;;;;;;;12.85;75.82;93568.38;5109738;28;20223;-66
2024/01/19 01:26:59;;;;;;;4.90;4.47;;;;;;;12.72;75.83;93560.53;5109337;28;20279;-65
2024/01/19 01:29:26;;;;;;;4.50;4.10;;;;;;;12.90;75.90;93568.63;5109233;28;20185;-67
2024/01/19 01:31:53;;;;;;;4.97;4.50;;;;;;;12.90;76.06;93580.66;5109241;28;20189;-66
2024/01/19 01:34:20;;;;;;;4.93;4.47;;;;;;;12.86;76.02;93557.13;5109938;28;20193;-67
2024/01/19 01:36:48;;;;;;;6.30;5.00;;;;;;;12.64;76.14;93522.16;5109751;28;20181;-64
2024/01/19 01:39:15;;;;;;;5.33;4.57;;;;;;;12.78;76.08;93567.53;5110951;28;20605;-65
2024/01/19 01:41:44;;;;;;;6.70;4.47;;;;;;;12.87;76.18;93566.44;5114120;28;20306;-64
2024/01/19 01:44:10;;;;;;;4.20;3.80;;;;;;;12.87;76.09;93591.31;5112802;28;20208;-63
2024/01/19 01:46:37;;;;;;;5.90;5.07;;;;;;;12.86;76.25;93554.56;5113300;28;20196;-65
2024/01/19 01:49:05;;;;;;;5.30;4.80;;;;;;;12.84;76.44;93586.53;5112898;28;20660;-66
2024/01/19 01:51:33;;;;;;;4.97;4.40;;;;;;;12.86;76.53;93551.22;5113117;28;20185;-65
2024/01/19 01:54:01;;;;;;;6.67;4.53;;;;;;;12.79;76.44;93559.63;5112266;28;20177;-66
2024/01/19 01:56:28;;;;;;;5.50;4.90;;;;;;;12.68;76.57;93549.03;5112660;28;20196;-66
2024/01/19 01:58:55;;;;;;;6.03;4.87;;;;;;;12.69;76.75;93548.84;5112602;28;20185;-65
2024/01/19 02:01:22;;;;;;;4.23;3.93;;;;;;;12.55;76.88;93532.50;5112655;28;20193;-65
2024/01/19 02:03:50;;;;;;;10.23;5.50;;;;;;;12.84;76.59;93571.94;5112496;28;20185;-63
2024/01/19 02:06:17;;;;;;;5.47;4.30;;;;;;;12.84;76.77;93581.41;5112530;28;20188;-65
2024/01/19 02:08:44;;;;;;;5.80;4.23;;;;;;;12.84;76.69;93571.13;5112239;28;20196;-67
2024/01/19 02:11:12;;;;;;;5.07;4.57;;;;;;;12.28;76.80;93495.47;5112060;28;20189;-63
2024/01/19 02:13:39;;;;;;;6.30;4.90;;;;;;;12.75;76.76;93568.66;5112214;28;20196;-66
2024/01/19 02:16:06;;;;;;;5.37;4.40;;;;;;;12.70;76.78;93554.78;5112122;28;20269;-64
2024/01/19 02:18:33;;;;;;;5.13;4.63;;;;;;;12.73;76.71;93578.28;5112141;28;20185;-67
2024/01/19 02:20:59;;;;;;;5.30;4.30;;;;;;;12.78;76.86;93578.56;5112292;28;20196;-68
2024/01/19 02:23:27;;;;;;;6.00;4.60;;;;;;;12.76;76.72;93564.31;5112142;28;20241;-69
2024/01/19 02:25:56;;;;;;;4.73;4.33;;;;;;;12.72;76.84;93581.03;5111627;28;20589;-70
2024/01/19 02:28:22;;;;;;;5.93;4.57;;;;;;;12.74;76.83;93604.75;5112106;28;20177;-66
2024/01/19 02:30:49;;;;;;;4.30;4.00;;;;;;;12.71;76.84;93593.06;5111793;28;20570;-68
2024/01/19 02:33:17;;;;;;;4.17;3.80;;;;;;;12.65;76.78;93582.72;5112254;28;20193;-67
2024/01/19 02:35:44;;;;;;;5.03;4.37;;;;;;;12.67;76.90;93591.03;5111863;28;20286;-64
2024/01/19 02:38:10;;;;;;;4.93;4.30;;;;;;;12.64;77.16;93599.88;5112219;28;20200;-67
2024/01/19 02:40:37;;;;;;;4.17;3.70;;;;;;;12.62;76.94;93599.28;5111981;28;20199;-71
2024/01/19 02:43:05;;;;;;;5.20;4.33;;;;;;;12.60;77.21;93600.41;5091511;28;20228;-66
2024/01/19 02:45:32;;;;;;;5.10;4.60;;;;;;;12.59;77.12;93611.66;5091590;28;20189;-71
2024/01/19 02:47:59;;;;;;;4.87;4.13;;;;;;;12.41;77.21;93591.47;5092683;28;20178;-68
2024/01/19 02:50:26;;;;;;;6.33;3.93;;;;;;;12.51;77.37;93600.50;5091129;28;20193;-66
2024/01/19 02:52:52;;;;;;;4.17;3.63;;;;;;;12.22;77.18;93570.53;5095398;28;20657;-72
2024/01/19 02:55:19;;;;;;;4.53;4.07;;;;;;;12.51;77.26;93628.69;5111613;28;20189;-71
2024/01/19 02:57:46;;;;;;;4.57;3.60;;;;;;;12.48;77.44;93612.88;5111434;28;20583;-69
2024/01/19 03:00:15;;;;;;;4.67;4.17;;;;;;;12.48;77.18;93633.41;5111611;28;20193;-68
2024/01/19 03:02:42;;;;;;;5.07;3.77;;;;;;;12.47;77.33;93632.59;5111227;28;20216;-68
2024/01/19 03:05:09;;;;;;;3.83;3.53;;;;;;;12.46;77.60;93633.56;5111452;28;20197;-67
2024/01/19 03:07:35;;;;;;;3.97;3.57;;;;;;;12.22;77.45;93606.41;5111502;28;20200;-64
2024/01/19 03:10:03;;;;;;;6.67;4.03;;;;;;;12.44;77.58;93622.69;5111368;28;20177;-69
2024/01/19 03:12:30;;;;;;;6.03;4.20;;;;;;;12.44;77.34;93611.66;5111618;28;20240;-64
2024/01/19 03:14:57;;;;;;;3.93;3.47;;;;;;;12.42;77.42;93628.97;5117527;28;20189;-62
2024/01/19 03:17:27;;;;;;;4.53;3.83;;;;;;;12.33;77.32;93612.84;5113565;28;20204;-68
2024/01/19 03:19:53;;;;;;;5.17;4.10;;;;;;;12.32;77.54;93598.44;5111102;28;20207;-68
2024/01/19 03:22:20;;;;;;;4.00;3.30;;;;;;;12.39;77.53;93625.00;5110191;28;20223;-65
2024/01/19 03:24:47;;;;;;;5.03;4.10;;;;;;;12.38;77.33;93613.13;5111480;28;20182;-63
2024/01/19 03:27:14;;;;;;;4.53;3.90;;;;;;;12.37;77.58;93633.81;5110655;28;20189;-63
2024/01/19 03:29:41;;;;;;;3.80;3.50;;;;;;;12.35;77.61;93621.19;5111082;28;20283;-64
2024/01/19 03:32:08;;;;;;;5.00;4.10;;;;;;;12.32;77.46;93595.09;5111715;28;20253;-62
2024/01/19 03:34:36;;;;;;;3.67;3.30;;;;;;;12.30;77.77;93608.06;5111174;28;20211;-64
2024/01/19 03:37:04;;;;;;;4.27;3.87;;;;;;;12.28;77.76;93617.72;5111365;28;20189;-65
2024/01/19 03:39:31;;;;;;;5.60;3.90;;;;;;;12.23;77.77;93635.41;5110518;28;20189;-68
2024/01/19 03:41:58;;;;;;;4.10;3.70;;;;;;;12.26;77.86;93630.72;5110040;28;20189;-65
2024/01/19 03:44:25;;;;;;;4.07;3.50;;;;;;;12.24;77.83;93631.84;5110729;28;20197;-64
2024/01/19 03:46:52;;;;;;;3.93;3.50;;;;;;;12.14;77.85;93621.84;5111288;28;20287;-64
2024/01/19 03:49:19;;;;;;;3.70;3.37;;;;;;;12.22;77.77;93633.81;5111012;28;20185;-66
2024/01/19 03:51:59;;;;;;;3.73;3.33;;;;;;;12.20;77.82;93633.16;5110631;28;20192;-64
2024/01/19 03:54:26;;;;;;;5.40;3.20;;;;;;;12.18;77.89;93643.59;5090363;28;20197;-63
2024/01/19 03:56:53;;;;;;;3.70;3.30;;;;;;;12.18;77.75;93640.25;5099666;28;20193;-65
2024/01/19 03:59:20;;;;;;;5.53;3.23;;;;;;;12.16;77.68;93621.66;5113673;28;20184;-63
2024/01/19 04:01:47;;;;;;;4.07;3.20;;;;;;;12.15;77.76;93638.03;5110337;28;20189;-65
2024/01/19 04:04:14;;;;;;;6.57;3.57;;;;;;;12.15;77.58;93638.03;5117811;28;20263;-65
2024/01/19 04:06:40;;;;;;;6.47;3.50;;;;;;;12.03;77.76;93630.72;5124178;28;20759;-63
2024/01/19 04:09:08;;;;;;;5.47;3.10;;;;;;;12.16;77.87;93644.72;5121431;28;20197;-65
2024/01/19 04:11:36;;;;;;;4.40;3.30;;;;;;;12.16;77.58;93642.16;5112679;28;20213;-64
2024/01/19 04:14:03;;;;;;;3.20;2.90;;;;;;;12.17;77.69;93656.56;5117088;28;20180;-70
2024/01/19 04:16:30;;;;;;;5.00;3.50;;;;;;;12.17;77.77;93648.88;5110323;28;20234;-64
2024/01/19 04:18:56;;;;;;;3.23;2.90;;;;;;;12.06;77.66;93621.91;5110312;28;20197;-66
2024/01/19 04:21:23;;;;;;;3.30;3.00;;;;;;;12.18;77.53;93650.50;5110256;28;20181;-64
2024/01/19 04:23:50;;;;;;;3.97;2.73;;;;;;;12.18;77.87;93642.81;5109931;28;20204;-63
2024/01/19 04:26:18;;;;;;;3.40;3.10;;;;;;;12.14;77.71;93626.97;5109769;28;20261;-64
2024/01/19 04:28:45;;;;;;;5.20;3.23;;;;;;;12.17;77.82;93636.84;5110039;28;20222;-64
2024/01/19 04:31:12;;;;;;;4.97;2.70;;;;;;;12.19;77.76;93639.28;5109863;28;20184;-66
2024/01/19 04:33:38;;;;;;;3.53;3.23;;;;;;;12.19;77.87;93631.56;5110033;28;20200;-63
2024/01/19 04:36:06;;;;;;;3.40;3.10;;;;;;;12.20;77.92;93645.97;5108395;28;20217;-62
2024/01/19 04:38:33;;;;;;;3.63;3.30;;;;;;;12.13;77.87;93633.03;5110144;28;20277;-68
2024/01/19 04:41:00;;;;;;;4.23;3.07;;;;;;;12.00;77.88;93605.47;5109868;28;20203;-66
2024/01/19 04:43:28;;;;;;;3.93;2.90;;;;;;;12.19;77.83;93652.09;5109973;28;20224;-62
2024/01/19 04:45:55;;;;;;;3.20;2.90;;;;;;;12.20;77.89;93651.09;5109500;28;20196;-63
2024/01/19 04:48:22;;;;;;;3.03;2.77;;;;;;;12.13;77.86;93635.59;5109503;28;20192;-67
2024/01/19 04:50:48;;;;;;;3.17;2.97;;;;;;;12.13;77.80;93630.50;5109697;28;20668;-65
2024/01/19 04:53:15;;;;;;;7.20;3.30;;;;;;;12.18;77.78;93638.47;5109286;28;20189;-65
2024/01/19 04:55:42;;;;;;;3.80;3.00;;;;;;;12.17;77.94;93644.56;5109497;28;20193;-70
2024/01/19 04:58:09;;;;;;;4.77;3.07;;;;;;;12.16;78.09;93654.97;5109769;28;20193;-69
2024/01/19 05:00:37;;;;;;;4.87;3.10;;;;;;;12.15;78.01;93648.28;5109464;28;20185;-67
2024/01/19 05:03:04;;;;;;;2.83;2.60;;;;;;;12.15;77.86;93646.50;5109217;28;20220;-65
2024/01/19 05:05:31;;;;;;;5.90;3.00;;;;;;;12.05;77.82;93636.50;5109468;28;20188;-70
2024/01/19 05:08:00;;;;;;;6.40;3.20;;;;;;;12.10;77.98;93643.66;5108953;28;20185;-69
2024/01/19 05:10:26;;;;;;;4.03;3.33;;;;;;;12.03;78.01;93640.97;5109706;28;20255;-67
2024/01/19 05:12:53;;;;;;;3.60;3.00;;;;;;;12.16;77.70;93653.22;5108595;28;20232;-71
2024/01/19 05:15:20;;;;;;;3.30;3.00;;;;;;;12.12;78.06;93651.16;5113051;28;20600;-69
2024/01/19 05:17:48;;;;;;;3.83;3.53;;;;;;;12.16;77.74;93650.66;5113013;28;20185;-70
2024/01/19 05:20:15;;;;;;;4.03;3.53;;;;;;;12.17;77.86;93665.06;5113946;28;20200;-66
2024/01/19 05:22:42;;;;;;;3.47;3.03;;;;;;;12.18;77.95;93660.75;5113804;28;20200;-66
2024/01/19 05:25:09;;;;;;;3.90;3.03;;;;;;;11.91;77.91;93626.19;5115595;28;20216;-67
2024/01/19 05:27:36;;;;;;;2.93;2.70;;;;;;;11.89;77.89;93616.13;5114299;28;20257;-67
2024/01/19 05:30:02;;;;;;;3.60;3.30;;;;;;;12.01;77.83;93637.81;5114213;28;20271;-64
2024/01/19 05:32:29;;;;;;;4.93;3.00;;;;;;;12.20;77.93;93674.19;5112672;28;20181;-64
2024/01/19 05:34:57;;;;;;;3.40;3.00;;;;;;;12.20;77.78;93674.97;5113059;28;20189;-64
2024/01/19 05:37:24;;;;;;;8.47;2.47;;;;;;;12.37;89.62;93667.94;5113231;28;20185;-63
2024/01/19 05:39:51;;;;;;;2.37;2.17;;;;;;;12.95;96.57;93674.13;5112943;28;20185;-65
2024/01/19 05:42:17;;;;;;;4.67;2.27;;;;;;;13.51;95.60;93681.34;5113015;28;20557;-64
2024/01/19 05:44:45;;;;;;;3.17;2.87;;;;;;;13.83;92.58;93666.47;5112280;28;20543;-65
2024/01/19 05:47:11;;;;;;;3.07;2.77;;;;;;;13.98;89.90;93667.19;5113063;28;20189;-69
2024/01/19 05:49:38;;;;;;;2.80;2.57;;;;;;;13.98;87.79;93674.91;5112546;28;20254;-74
2024/01/19 05:52:07;;;;;;;2.70;2.50;;;;;;;13.80;86.21;93647.06;5113002;28;20752;-68
2024/01/19 05:54:36;;;;;;;2.80;2.60;;;;;;;13.28;84.80;93579.56;5114072;28;20243;-70
2024/01/19 05:57:02;;;;;;;4.27;3.33;;;;;;;13.67;83.87;93654.63;5118333;28;20557;-64
2024/01/19 05:59:29;;;;;;;4.33;3.00;;;;;;;13.67;83.03;93686.25;5119054;28;20206;-65
2024/01/19 06:01:56;;;;;;;3.33;3.03;;;;;;;13.59;82.30;93663.25;5114303;28;20204;-67
2024/01/19 06:04:23;;;;;;;4.60;2.97;;;;;;;13.51;81.99;93687.28;5113638;28;20224;-63
2024/01/19 06:06:50;;;;;;;3.97;3.30;;;;;;;13.43;81.68;93700.22;5112450;28;20193;-65
2024/01/19 06:09:18;;;;;;;6.07;3.07;;;;;;;13.40;81.42;93674.91;5112904;28;20177;-64
2024/01/19 06:11:45;;;;;;;6.77;3.57;;;;;;;13.36;81.37;93680.56;5112202;28;20323;-64
2024/01/19 06:14:11;;;;;;;4.87;3.53;;;;;;;13.32;81.17;93692.19;5112661;28;20177;-70
2024/01/19 06:16:39;;;;;;;4.97;3.70;;;;;;;13.26;80.68;93673.94;5112542;28;20194;-69
2024/01/19 06:19:06;;;;;;;4.20;3.70;;;;;;;13.22;80.60;93688.13;5112562;28;20219;-66
2024/01/19 06:21:33;;;;;;;4.87;3.27;;;;;;;13.20;80.54;93710.56;5112065;28;20185;-64
2024/01/19 06:24:00;;;;;;;4.53;3.43;;;;;;;13.16;80.56;93701.63;5112703;28;20217;-67
2024/01/19 06:26:32;;;;;;;6.40;3.43;;;;;;;13.15;80.34;93696.66;5112427;28;20254;-67
2024/01/19 06:28:59;;;;;;;3.30;2.97;;;;;;;13.04;80.20;93708.19;5112332;28;20188;-68
2024/01/19 06:31:26;;;;;;;5.43;3.23;;;;;;;13.09;79.93;93712.78;5112185;28;20250;-70
2024/01/19 06:33:52;;;;;;;4.43;3.20;;;;;;;13.10;79.92;93698.97;5111927;28;20196;-64
2024/01/19 06:36:19;;;;;;;4.13;3.73;;;;;;;13.07;80.01;93712.94;5111980;28;20193;-70
2024/01/19 06:38:46;;;;;;;4.53;3.80;;;;;;;12.92;79.67;93704.47;5112297;28;20196;-67
2024/01/19 06:41:13;;;;;;;4.00;3.60;;;;;;;13.01;79.68;93732.44;5112018;28;20189;-64
2024/01/19 06:43:41;;;;;;;6.30;3.60;;;;;;;13.00;79.76;93706.94;5111978;28;20232;-64
2024/01/19 06:46:07;;;;;;;4.47;3.80;;;;;;;12.96;79.38;93719.34;5113025;28;20188;-64
2024/01/19 06:48:34;;;;;;;6.07;3.70;;;;;;;12.98;79.33;93735.34;5112858;28;20185;-63
2024/01/19 06:51:01;;;;;;;5.57;3.70;;;;;;;13.04;79.22;93746.69;5112195;28;20623;-65
2024/01/19 06:53:28;;;;;;;4.13;3.80;;;;;;;12.99;79.24;93739.50;5111691;28;20216;-65
2024/01/19 06:55:54;;;;;;;4.53;3.90;;;;;;;13.00;79.03;93748.00;5111712;28;20180;-62
2024/01/19 06:58:21;;;;;;;4.50;3.83;;;;;;;13.03;78.91;93742.50;5111022;28;20189;-66
2024/01/19 07:00:49;;;;;;;4.80;4.30;;;;;;;13.08;78.84;93729.94;5111608;28;20204;-66
2024/01/19 07:03:16;;;;;;;5.07;4.37;;;;;;;13.02;78.84;93728.88;5112618;27;20209;-65
2024/01/19 07:05:43;;;;;;;4.37;3.80;;;;;;;12.51;78.50;93640.72;5111653;28;20213;-68
2024/01/19 07:08:10;;;;;;;6.67;4.37;;;;;;;13.34;78.39;93767.25;5111817;28;20189;-67
2024/01/19 07:10:37;;;;;;;4.57;3.90;;;;;;;13.49;78.07;93761.13;5109859;28;20185;-67
2024/01/19 07:13:04;;;;;;;6.43;4.77;;;;;;;13.60;77.46;93756.50;5106724;28;20252;-64
2024/01/19 07:15:31;;;;;;;4.60;4.10;;;;;;;13.70;77.51;93765.56;5106469;28;20216;-68
2024/01/19 07:17:59;;;;;;;5.10;4.33;;;;;;;13.67;77.27;93742.78;5109490;28;20192;-67
2024/01/19 07:20:26;;;;;;;4.90;3.97;;;;;;;13.83;77.22;93749.50;5109405;28;20193;-64
2024/01/19 07:22:53;;;;;;;5.63;4.33;;;;;;;13.93;77.15;93762.06;5110939;28;20198;-62
2024/01/19 07:25:20;;;;;;;5.43;4.10;;;;;;;14.02;76.54;93753.25;5109824;28;20180;-66
2024/01/19 07:27:47;;;;;;;4.70;3.97;;;;;;;14.16;76.49;93741.31;5110179;28;20652;-67
2024/01/19 07:30:14;;;;;;;5.90;4.83;;;;;;;14.28;76.31;93748.38;5109319;28;20676;-68
2024/01/19 07:32:40;;;;;;;6.47;4.60;;;;;;;14.45;76.16;93746.34;5110275;28;20177;-68
2024/01/19 07:35:09;;;;;;;5.20;4.57;;;;;;;14.78;75.86;93743.28;5109515;28;20203;-68
2024/01/19 07:37:35;;;;;;;5.63;4.47;;;;;;;15.11;75.63;93758.16;5109639;28;20189;-68
2024/01/19 07:40:03;;;;;;;7.83;4.50;;;;;;;15.48;75.34;93744.13;5109866;28;20193;-69
2024/01/19 07:42:30;;;;;;;6.57;5.20;;;;;;;15.80;75.10;93758.16;5109883;28;20192;-69
2024/01/19 07:44:57;;;;;;;5.87;4.43;;;;;;;16.00;74.90;93755.66;5109672;28;20224;-68
2024/01/19 07:47:24;;;;;;;5.87;4.77;;;;;;;16.12;74.72;93768.81;5109480;28;20181;-64
2024/01/19 07:49:52;;;;;;;5.57;4.97;;;;;;;16.17;74.20;93764.63;5109415;28;20209;-67
2024/01/19 07:52:20;;;;;;;7.13;5.23;;;;;;;15.83;73.91;93700.28;5109147;28;20218;-65
2024/01/19 07:54:47;;;;;;;7.60;5.30;;;;;;;16.28;73.57;93766.66;5109746;28;20196;-64
2024/01/19 07:57:14;;;;;;;7.17;5.37;;;;;;;16.33;73.20;93758.34;5109359;28;20180;-67
2024/01/19 07:59:41;;;;;;;5.87;5.37;;;;;;;16.16;72.78;93728.72;5109636;28;20196;-64
2024/01/19 08:02:08;;;;;;;8.23;5.73;;;;;;;16.20;72.69;93737.66;5109146;27;20204;-63
2024/01/19 08:04:35;;;;;;;8.90;5.73;;;;;;;16.43;72.57;93763.09;5109523;28;20685;-65
2024/01/19 08:07:02;;;;;;;7.97;6.13;;;;;;;16.42;72.63;93767.47;5109644;28;20196;-66
2024/01/19 08:09:30;;;;;;;10.27;6.40;;;;;;;16.40;72.33;93758.34;5109901;28;20185;-67
2024/01/19 08:11:57;;;;;;;10.43;6.90;;;;;;;16.41;72.39;93754.78;5109012;28;20224;-65
2024/01/19 08:14:24;;;;;;;9.00;6.43;;;;;;;16.37;72.22;93761.31;5109463;28;20189;-64
2024/01/19 08:16:52;;;;;;;7.13;6.33;;;;;;;16.39;72.19;93773.03;5109255;28;20207;-63
2024/01/19 08:19:19;;;;;;;8.83;7.53;;;;;;;16.38;72.58;93774.03;5110558;28;20200;-66
2024/01/19 08:21:46;;;;;;;8.00;6.47;;;;;;;16.38;72.10;93778.38;5110379;28;20193;-64
2024/01/19 08:24:13;;;;;;;9.13;6.97;;;;;;;16.39;72.08;93785.13;5109774;28;20220;-70
2024/01/19 08:26:56;;;;;;;9.97;7.30;;;;;;;16.42;71.86;93790.72;5111802;28;20254;-70
2024/01/19 08:29:23;;;;;;;9.97;6.70;;;;;;;16.41;71.81;93781.38;5109537;28;20196;-65
2024/01/19 08:31:52;;;;;;;11.23;7.27;;;;;;;16.51;71.61;93799.84;5108774;28;20197;-70
2024/01/19 08:34:19;;;;;;;11.10;7.30;;;;;;;16.55;71.40;93798.47;5110433;28;20638;-66
2024/01/19 08:36:46;;;;;;;10.63;7.37;;;;;;;16.61;71.28;93802.03;5110681;28;20270;-70
2024/01/19 08:39:14;;;;;;;11.17;7.17;;;;;;;16.67;71.22;93792.75;5111121;28;20189;-66
2024/01/19 08:41:42;;;;;;;7.47;6.63;;;;;;;16.51;70.87;93761.13;5110975;28;20657;-67
2024/01/19 08:44:10;;;;;;;9.47;7.40;;;;;;;16.59;70.84;93752.41;5110027;28;20794;-68
2024/01/19 08:46:43;;;;;;;9.37;7.47;;;;;;;16.90;70.65;93811.25;5109602;28;20193;-67
2024/01/19 08:49:10;;;;;;;10.20;7.30;;;;;;;16.95;70.66;93800.31;5115490;28;20666;-68
2024/01/19 08:51:37;;;;;;;9.20;7.30;;;;;;;16.99;70.35;93801.50;5123181;28;20189;-66
2024/01/19 08:54:04;;;;;;;11.00;7.93;;;;;;;17.04;70.21;93822.38;5127259;28;20200;-65
2024/01/19 08:56:31;;;;;;;8.93;7.20;;;;;;;17.07;69.92;93803.91;5120982;28;20635;-62
2024/01/19 08:58:58;;;;;;;8.93;7.10;;;;;;;17.10;69.96;93798.34;5117455;28;20228;-68
2024/01/19 09:01:26;;;;;;;10.80;7.03;;;;;;;17.21;69.89;93802.91;5113556;28;20196;-63
2024/01/19 09:03:53;;;;;;;10.10;7.27;;;;;;;17.28;69.59;93805.47;5112559;28;20570;-70
2024/01/19 09:06:20;;;;;;;11.70;7.20;;;;;;;17.34;69.60;93799.50;5112779;28;20673;-63
2024/01/19 09:08:46;;;;;;;9.20;7.40;;;;;;;16.86;69.23;93701.59;5109925;28;20197;-67
2024/01/19 09:11:13;;;;;;;10.30;6.60;;;;;;;17.50;69.07;93795.72;5112366;28;20200;-69
2024/01/19 09:13:40;;;;;;;8.40;6.70;;;;;;;17.39;69.20;93773.06;5112970;28;20196;-67
2024/01/19 09:16:08;;;;;;;7.53;6.00;;;;;;;17.62;68.92;93794.09;5112457;28;20676;-66
2024/01/19 09:18:37;;;;;;;6.40;5.53;;;;;;;17.67;68.91;93791.69;5112798;28;20249;-66
2024/01/19 09:21:04;;;;;;;7.37;5.57;;;;;;;17.73;68.71;93790.06;5114202;28;20208;-65
2024/01/19 09:23:31;;;;;;;8.10;5.63;;;;;;;17.75;68.55;93775.97;5112869;28;20197;-63
2024/01/19 09:25:57;;;;;;;8.87;5.50;;;;;;;17.84;68.48;93784.31;5111940;28;20188;-65
2024/01/19 09:28:24;;;;;;;9.43;5.33;;;;;;;17.90;68.41;93774.94;5112127;28;20189;-66
2024/01/19 09:30:51;;;;;;;10.00;5.70;;;;;;;17.94;68.01;93766.56;5109101;28;20190;-65
2024/01/19 09:33:18;;;;;;;8.10;5.37;;;;;;;17.89;67.68;93747.47;5112517;27;20212;-64
2024/01/19 09:35:46;;;;;;;6.63;5.00;;;;;;;18.18;67.45;93772.03;5112217;28;20201;-69
2024/01/19 09:38:13;;;;;;;8.37;5.57;;;;;;;18.31;67.13;93764.19;5111943;28;20189;-67
2024/01/19 09:40:43;;;;;;;7.57;5.00;;;;;;;18.33;66.68;93743.28;5112126;28;20226;-65
2024/01/19 09:43:13;;;;;;;5.03;4.53;;;;;;;18.50;66.39;93759.91;5109629;28;20281;-66
2024/01/19 09:45:42;;;;;;;8.73;5.00;;;;;;;18.54;66.47;93750.72;5111901;28;20292;-66
2024/01/19 09:48:22;;;;;;;8.40;5.53;;;;;;;18.58;66.24;93743.31;5112349;28;20237;-66
2024/01/19 09:50:52;;;;;;;7.57;4.70;;;;;;;18.62;65.91;93755.63;5115753;28;20189;-68
2024/01/19 09:53:22;;;;;;;5.90;5.10;;;;;;;18.64;65.77;93753.63;5122884;28;20204;-67
2024/01/19 09:55:49;;;;;;;7.13;5.17;;;;;;;18.67;65.55;93749.81;5117126;28;20216;-69
2024/01/19 09:58:18;;;;;;;6.50;5.10;;;;;;;18.73;65.54;93762.75;5112905;28;20173;-66
2024/01/19 10:00:47;;;;;;;9.30;4.77;;;;;;;18.79;65.37;93743.78;5110703;28;20219;-65
2024/01/19 10:03:17;;;;;;;7.20;4.80;;;;;;;18.89;65.28;93748.47;5112266;28;20192;-68
2024/01/19 10:05:44;;;;;;;6.57;4.97;;;;;;;18.97;65.09;93747.44;5112231;28;20227;-66
2024/01/19 10:08:14;;;;;;;10.80;4.90;;;;;;;18.90;64.65;93720.78;5112858;28;20189;-65
2024/01/19 10:10:42;;;;;;;6.40;4.77;;;;;;;19.09;64.81;93737.16;5114942;28;20205;-67
2024/01/19 10:13:09;;;;;;;10.57;4.47;;;;;;;19.08;64.85;93738.16;5114228;28;20229;-65
2024/01/19 10:15:36;;;;;;;7.67;4.60;;;;;;;19.04;64.69;93722.22;5114181;28;20261;-67
2024/01/19 10:18:05;;;;;;;7.07;4.93;;;;;;;19.02;64.74;93719.06;5114430;27;20624;-64
2024/01/19 10:20:32;;;;;;;9.17;5.10;;;;;;;19.00;64.68;93723.69;5113655;28;20215;-66
2024/01/19 10:23:21;;;;;;;8.52;4.70;;;;;;;18.97;64.85;93711.16;5114765;28;20207;-69
2024/01/19 10:25:47;;;;;;;7.17;5.23;;;;;;;18.97;64.68;93724.09;5120073;28;20227;-68
2024/01/19 10:28:30;;;;;;;6.80;4.17;;;;;;;19.01;64.83;93713.09;5116018;28;20193;-66
2024/01/19 10:31:18;;;;;;;7.03;4.23;;;;;;;18.94;64.54;93691.63;5111220;28;20256;-67
2024/01/19 10:33:49;;;;;;;8.87;4.93;;;;;;;19.08;64.54;93696.69;5107747;28;20721;-64
2024/01/19 10:36:16;;;;;;;8.00;4.57;;;;;;;19.03;64.33;93676.59;5111521;28;20250;-65
2024/01/19 10:38:44;;;;;;;4.87;4.30;;;;;;;19.09;64.23;93683.53;5110923;28;20280;-66
2024/01/19 10:41:18;;;;;;;6.70;4.37;;;;;;;19.17;64.01;93693.63;5111038;28;20634;-64
2024/01/19 10:43:45;;;;;;;9.00;4.50;;;;;;;19.17;64.07;93665.13;5111060;28;20185;-63
2024/01/19 10:46:23;;;;;;;5.23;4.30;;;;;;;19.35;63.36;93689.47;5110616;28;20716;-68
2024/01/19 10:48:50;;;;;;;4.87;3.97;;;;;;;19.33;63.43;93671.50;5110927;28;20250;-65
2024/01/19 10:51:19;;;;;;;6.73;4.67;;;;;;;19.36;63.04;93655.53;5111165;28;20225;-70
2024/01/19 10:53:49;;;;;;;7.00;4.33;;;;;;;19.35;62.99;93655.75;5111594;28;20208;-68
2024/01/19 10:56:20;;;;;;;5.60;4.33;;;;;;;19.28;62.98;93661.00;5111541;28;20189;-66
2024/01/19 10:58:47;;;;;;;7.27;4.47;;;;;;;19.20;63.38;93662.06;5111361;28;20626;-69
2024/01/19 11:01:15;;;;;;;9.00;4.35;;;;;;;19.16;63.45;93654.94;5110633;28;20641;-64
2024/01/19 11:03:43;;;;;;;5.47;4.33;;;;;;;18.98;63.22;93620.25;5110253;28;20260;-66
2024/01/19 11:06:10;;;;;;;6.85;4.47;;;;;;;19.21;63.23;93649.91;5110660;28;20270;-65
2024/01/19 11:08:37;;;;;;;9.40;4.27;;;;;;;19.26;62.89;93650.06;5111300;28;20185;-68
2024/01/19 11:11:07;;;;;;;5.07;3.80;;;;;;;19.33;62.66;93648.19;5109425;28;20192;-67
2024/01/19 11:13:37;;;;;;;6.37;4.57;;;;;;;19.22;62.49;93612.63;5111439;28;20250;-65
2024/01/19 11:16:08;;;;;;;8.00;4.00;;;;;;;19.50;62.16;93648.38;5110029;28;20299;-64
2024/01/19 11:18:35;;;;;;;8.70;3.83;;;;;;;19.63;61.74;93661.22;5111537;28;20657;-68
2024/01/19 11:21:01;;;;;;;6.27;3.40;;;;;;;19.77;61.24;93647.09;5129629;28;20196;-65
2024/01/19 11:23:29;;;;;;;4.80;3.57;;;;;;;19.83;60.86;93640.22;5124220;28;20189;-64
2024/01/19 11:26:07;;;;;;;5.07;3.63;;;;;;;20.10;60.36;93653.63;5110299;27;20246;-68
2024/01/19 11:28:47;;;;;;;6.87;3.63;;;;;;;20.24;59.79;93655.00;5109531;28;20707;-71
2024/01/19 11:31:15;;;;;;;5.03;2.70;;;;;;;20.30;59.53;93642.94;5108632;28;20177;-65
2024/01/19 11:33:42;;;;;;;5.10;3.63;;;;;;;20.42;59.33;93655.94;5109411;28;20214;-68
2024/01/19 11:36:09;;;;;;;6.97;3.35;;;;;;;20.52;59.00;93664.00;5110698;28;20197;-68